Latest Weather Observations for Gosford

IDN60801

Issued at 11:35 pm EST Wednesday 17 September 2014 (issued every 30 minutes, with the page automatically refreshed every 10 minutes)

About weather observations | Map of weather stations | Latest weather observations for NSW | Other Formats
Station Details ID: 061425 Name: GOSFORD AWS Lat: -33.44 Lon: 151.36 Height: 7.0 m
Data from the previous 72 hours. | See also: Recent months at Gosford
Date/Time
EST
Temp
°C
App
Temp
°C
Dew
Point
Rel
Hum
%
Delta-T
°C
Wind Press
QNH
hPa
Press
MSL
hPa
Rain
since 9 am
mm
Dir
 
Spd
km/h
Gust
km/h
Spd
kts
Gust
kts
17/11:30pm 11.6 10.8 9.5 87 1.1 NNW 4 7 2 4 - - 0.0
17/11:00pm 12.9 12.0 9.2 78 1.9 NW 4 7 2 4 - - 0.0
17/10:30pm 13.4 12.1 9.1 75 2.2 WNW 6 11 3 6 - - 0.0
17/10:00pm 13.7 13.2 9.4 75 2.2 WNW 2 6 1 3 - - 0.0
17/09:30pm 13.8 12.5 9.3 74 2.3 NW 6 9 3 5 - - 0.0
17/09:00pm 15.0 13.5 9.1 68 3.0 WNW 7 11 4 6 - - 0.0
17/08:30pm 14.9 13.6 9.3 69 2.9 WNW 6 7 3 4 - - 0.0
17/08:00pm 16.1 13.9 9.3 64 3.5 W 11 19 6 10 - - 0.0
17/07:30pm 16.7 14.5 9.4 62 3.8 W 11 24 6 13 - - 0.0
17/07:00pm 17.1 14.1 9.3 60 4.1 W 15 26 8 14 - - 0.0
17/06:30pm 17.8 13.8 9.2 57 4.5 W 20 28 11 15 - - 0.0
17/06:00pm 17.8 15.3 9.7 59 4.3 W 13 22 7 12 - - 0.0
17/05:30pm 18.7 15.1 10.0 57 4.6 W 19 30 10 16 - - 0.0
17/05:00pm 19.4 15.4 10.4 56 4.8 W 22 35 12 19 - - 0.0
17/04:30pm 20.2 15.5 10.6 54 5.2 WNW 26 37 14 20 - - 0.0
17/04:00pm 20.8 16.9 10.9 53 5.4 W 22 35 12 19 - - 0.0
17/03:30pm 20.6 15.9 10.7 53 5.4 WSW 26 41 14 22 - - 0.0
17/03:00pm 21.0 17.6 11.3 54 5.4 W 20 39 11 21 - - 0.0
17/02:30pm 21.6 17.5 11.6 53 5.6 W 24 33 13 18 - - 0.0
17/02:00pm 21.8 18.5 11.5 52 5.7 W 20 33 11 18 - - 0.0
17/01:30pm 21.8 19.7 12.4 55 5.3 W 15 28 8 15 - - 0.0
17/01:00pm 21.6 19.3 11.9 54 5.4 WSW 15 26 8 14 - - 0.0
17/12:30pm 21.2 18.4 11.5 54 5.4 W 17 28 9 15 - - 0.0
17/12:00pm 20.2 17.3 10.9 55 5.1 WSW 17 28 9 15 - - 0.0
17/11:30am 20.0 16.6 10.7 55 5.1 W 19 26 10 14 - - 0.0
17/11:00am 20.1 16.9 11.1 56 4.9 W 19 33 10 18 - - 0.0
17/10:30am 19.1 16.3 10.1 56 4.8 WSW 15 28 8 15 - - 0.0
17/10:00am 18.8 15.3 10.1 57 4.6 WSW 19 30 10 16 - - 0.0
17/09:30am 18.3 15.0 9.6 57 4.6 W 17 26 9 14 - - 0.0
17/09:00am 17.7 13.4 9.3 58 4.4 W 22 39 12 21 - - 0.0
17/08:30am 17.1 13.7 9.3 60 4.1 W 17 26 9 14 - - 0.0
17/08:00am 16.6 12.8 9.8 64 3.6 W 20 33 11 18 - - 0.0
17/07:30am 16.0 13.5 11.2 73 2.6 W 15 24 8 13 - - 0.0
17/07:00am 15.5 13.4 11.1 75 2.3 WNW 13 20 7 11 - - 0.0
17/06:30am 14.1 12.8 11.4 84 1.4 NW 9 13 5 7 - - 0.0
17/06:00am 13.0 12.1 11.4 90 0.8 NW 7 15 4 8 - - 0.0
17/05:30am 11.7 11.4 11.4 98 0.2 N 4 7 2 4 - - 0.0
17/05:00am 12.2 12.6 11.3 94 0.5 CALM 0 4 0 2 - - 0.0
17/04:30am 13.3 12.9 11.0 86 1.2 E 4 9 2 5 - - 0.0
17/04:00am 15.1 14.2 11.5 79 1.9 W 7 11 4 6 - - 0.0
17/03:30am 15.4 13.8 11.4 77 2.1 W 11 19 6 10 - - 0.0
17/03:00am 15.3 14.0 11.1 76 2.2 WNW 9 15 5 8 - - 0.0
17/02:30am 14.9 14.2 11.3 79 1.9 WNW 6 17 3 9 - - 0.0
17/02:00am 14.1 14.1 11.1 82 1.6 N 2 7 1 4 - - 0.0
17/01:30am 14.6 14.7 11.4 81 1.7 NW 2 9 1 5 - - 0.0
17/01:00am 14.6 14.6 11.2 80 1.8 N 2 4 1 2 - - 0.0
17/12:30am 16.0 15.2 11.2 73 2.6 NW 6 9 3 5 - - 0.0
17/12:00am 16.3 15.9 11.2 72 2.7 NNW 4 13 2 7 - - 0.0
 
Date/Time
EST
Temp
°C
App
Temp
°C
Dew
Point
Rel
Hum
%
Delta-T
°C
Wind Press
QNH
hPa
Press
MSL
hPa
Rain
since 9 am
mm
Dir
 
Spd
km/h
Gust
km/h
Spd
kts
Gust
kts
16/11:30pm 16.5 15.2 11.2 71 2.9 WNW 9 19 5 10 - - 0.0
16/11:00pm 16.9 14.9 11.4 70 3.0 WNW 13 24 7 13 - - 0.0
16/10:30pm 16.4 14.9 12.0 75 2.4 WNW 11 17 6 9 - - 0.0
16/10:00pm 16.5 14.8 12.3 76 2.3 W 13 22 7 12 - - 0.0
16/09:30pm 17.6 15.5 12.5 72 2.8 W 15 20 8 11 - - 0.0
16/09:00pm 17.6 15.9 12.5 72 2.8 W 13 22 7 12 - - 0.0
16/08:30pm 18.0 15.6 12.5 70 3.1 W 17 24 9 13 - - 0.0
16/08:00pm 18.7 16.3 12.7 68 3.4 WSW 17 26 9 14 - - 0.0
16/07:30pm 19.2 17.6 12.9 67 3.5 WSW 13 24 7 13 - - 0.0
16/07:00pm 19.8 17.6 13.3 66 3.7 W 17 28 9 15 - - 0.0
16/06:30pm 20.5 18.3 13.2 63 4.2 W 17 28 9 15 - - 0.0
16/06:00pm 20.9 20.7 13.6 63 4.2 W 7 17 4 9 - - 0.0
16/05:30pm 21.7 20.3 14.4 63 4.3 WNW 15 20 8 11 - - 0.0
16/05:00pm 22.5 20.6 15.1 63 4.4 W 19 32 10 17 - - 0.0
16/04:30pm 23.7 22.1 16.0 62 4.7 WNW 19 30 10 16 - - 0.0
16/04:00pm 24.4 23.0 16.9 63 4.6 W 20 30 11 16 - - 0.0
16/03:30pm 22.0 24.2 19.7 87 1.5 E 7 11 4 6 - - 0.0
16/03:00pm 22.0 24.1 20.1 89 1.2 NE 9 15 5 8 - - 0.0
16/02:30pm 21.4 22.4 19.5 89 1.2 ENE 13 17 7 9 - - 0.0
16/02:00pm 21.7 23.3 20.0 90 1.1 E 11 20 6 11 - - 0.0
16/01:30pm 21.2 21.6 18.9 87 1.4 NE 15 22 8 12 - - 0.0
16/01:00pm 21.6 22.7 19.7 89 1.2 E 13 20 7 11 - - 0.0
16/12:30pm 21.9 23.6 20.2 90 1.1 E 11 19 6 10 - - 0.0
16/12:00pm 21.2 22.1 20.0 93 0.8 ENE 15 20 8 11 - - 0.0
16/11:30am 21.0 22.5 18.9 88 1.3 ENE 9 15 5 8 - - 0.0
16/11:00am 20.2 21.3 18.9 92 0.8 NE 11 15 6 8 - - 0.0
16/10:30am 19.3 20.5 18.3 94 0.6 NE 9 17 5 9 - - 0.0
16/10:00am 19.8 20.1 18.8 94 0.6 NE 15 26 8 14 - - 0.0
16/09:30am 18.5 19.4 18.5 100 0.0 ENE 11 28 6 15 - - 0.0
16/09:00am 19.6 20.2 19.4 99 0.1 NE 15 22 8 12 - - 0.2
16/08:30am 18.1 18.5 18.1 100 0.0 NE 13 24 7 13 - - 0.2
16/08:00am 18.1 19.6 18.1 100 0.0 NNE 7 22 4 12 - - 0.2
16/07:30am 17.6 18.2 17.6 100 0.0 NNE 11 22 6 12 - - 0.2
16/07:00am 16.6 - - - - ENE 9 15 5 8 - - 0.2
16/06:30am 16.5 - - - - N 9 19 5 10 - - 0.2
16/06:00am 16.1 - - - - NNE 7 13 4 7 - - 0.2
16/05:30am 15.6 - - - - NE 9 15 5 8 - - 0.2
16/05:00am 15.9 - - - - WNW 7 17 4 9 - - 0.2
16/04:30am 15.4 - - - - NW 6 7 3 4 - - 0.2
16/04:00am 15.0 - - - - NNE 2 9 1 5 - - 0.2
16/03:30am 15.1 - - - - CALM 0 4 0 2 - - 0.2
16/03:00am 15.4 - - - - NE 2 7 1 4 - - 0.2
16/02:30am 14.6 - - - - NE 4 9 2 5 - - 0.2
16/02:00am 14.0 - - - - N 4 7 2 4 - - 0.2
16/01:30am 14.0 - - - - E 4 7 2 4 - - 0.0
16/01:00am 14.6 - - - - E 6 7 3 4 - - 0.0
16/12:30am 14.8 - - - - NE 6 13 3 7 - - 0.0
16/12:00am 15.4 15.5 15.4 100 0.0 WNW 9 17 5 9 - - 0.0
 
Date/Time
EST
Temp
°C
App
Temp
°C
Dew
Point
Rel
Hum
%
Delta-T
°C
Wind Press
QNH
hPa
Press
MSL
hPa
Rain
since 9 am
mm
Dir
 
Spd
km/h
Gust
km/h
Spd
kts
Gust
kts
15/11:30pm 15.6 16.3 15.6 100 0.0 NE 6 9 3 5 - - 0.0
15/11:00pm 14.8 - - - - NE 4 9 2 5 - - 0.0
15/10:30pm 14.7 - - - - NE 4 6 2 3 - - 0.0
15/10:00pm 14.2 - - - - CALM 0 0 0 0 - - 0.0
15/09:30pm 14.8 16.0 14.8 100 0.0 NNE 2 4 1 2 - - 0.0
15/09:00pm 14.9 15.7 14.9 100 0.0 NE 4 11 2 6 - - 0.0
15/08:30pm 14.3 - - - - NE 6 7 3 4 - - 0.0
15/08:00pm 14.2 14.8 14.2 100 0.0 ENE 4 7 2 4 - - 0.0
15/07:30pm 15.0 15.5 15.0 100 0.0 NE 6 7 3 4 - - 0.0
15/07:00pm 15.4 16.4 15.4 100 0.0 ENE 4 7 2 4 - - 0.0
15/06:30pm 15.9 16.5 15.4 97 0.3 NE 6 9 3 5 - - 0.0
15/06:00pm 16.4 17.0 15.4 94 0.6 NE 6 7 3 4 - - 0.0
15/05:30pm 17.3 17.8 15.6 90 1.0 NE 7 13 4 7 - - 0.0
15/05:00pm 17.9 17.8 15.9 88 1.2 ENE 11 19 6 10 - - 0.0
15/04:30pm 18.1 17.5 15.7 86 1.4 ENE 13 19 7 10 - - 0.0
15/04:00pm 18.6 17.9 16.4 87 1.3 E 15 22 8 12 - - 0.0
15/03:30pm 19.2 19.3 16.6 85 1.6 E 11 20 6 11 - - 0.0
15/03:00pm 19.2 18.9 16.4 84 1.7 E 13 20 7 11 - - 0.0
15/02:30pm 19.2 18.1 16.4 84 1.7 ENE 17 26 9 14 - - 0.0
15/02:00pm 19.3 19.0 16.5 84 1.7 E 13 22 7 12 - - 0.0
15/01:30pm 19.0 19.1 16.6 86 1.4 E 11 22 6 12 - - 0.0
15/01:00pm 18.9 19.4 16.5 86 1.4 E 9 17 5 9 - - 0.0
15/12:30pm 19.3 18.7 16.7 85 1.6 E 15 20 8 11 - - 0.0
15/12:00pm 18.9 19.5 16.7 87 1.3 E 9 15 5 8 - - 0.0
15/11:30am 19.7 21.1 17.7 88 1.2 ESE 7 13 4 7 - - 0.0
15/11:00am 18.7 19.3 16.7 88 1.2 ENE 9 15 5 8 - - 0.0
15/10:30am 18.9 20.2 16.1 84 1.7 N 4 9 2 5 - - 0.0
15/10:00am 19.4 21.6 17.4 88 1.2 E 2 6 1 3 - - 0.0
15/09:30am 18.0 19.2 16.9 93 0.7 S 6 7 3 4 - - 0.0
15/09:00am 17.4 18.1 16.1 92 0.8 W 7 11 4 6 - - 0.2
15/08:30am 16.8 17.2 16.3 97 0.3 W 9 15 5 8 - - 0.2
15/08:00am 16.0 16.3 16.0 100 0.0 W 9 11 5 6 - - 0.2
15/07:30am 14.8 - - - - W 11 15 6 8 - - 0.2
15/07:00am 13.2 - - - - W 7 13 4 7 - - 0.2
15/06:30am 12.4 - - - - W 2 6 1 3 - - 0.2
15/06:00am 11.6 - - - - CALM 0 0 0 0 - - 0.2
15/05:30am 12.0 - - - - WNW 2 4 1 2 - - 0.2
15/05:00am 12.9 - - - - WNW 4 6 2 3 - - 0.2
15/04:30am 12.7 - - - - W 4 7 2 4 - - 0.2
15/04:00am 13.2 - - - - WNW 4 7 2 4 - - 0.2
15/03:30am 13.4 - - - - NW 6 6 3 3 - - 0.2
15/03:00am 14.1 - - - - CALM 0 0 0 0 - - 0.2
15/02:30am 14.2 - - - - W 2 7 1 4 - - 0.2
15/02:00am 15.1 - - - - WSW 4 7 2 4 - - 0.2
15/01:30am 15.7 - - - - W 6 9 3 5 - - 0.2
15/01:00am 15.6 - - - - WSW 4 7 2 4 - - 0.2
15/12:30am 15.6 - - - - SW 4 6 2 3 - - 0.2
15/12:00am 16.0 16.9 16.0 100 0.0 SW 6 9 3 5 - - 0.2

Other Formats:

Comma delimited format used in spreadsheet applications
http://www.bom.gov.au/fwo/IDN60801/IDN60801.94782.axf

JavaScript Object Notation format (JSON) in row-major order
http://www.bom.gov.au/fwo/IDN60801/IDN60801.94782.json